Time;durP1;ratioP1;P1;durP2;ratioP2;P2;SDS_P1;SDS_P2;PMS_P1;PMS_P2;Temp;Humidity;BMP_temperature;BMP_pressure;BME280_temperature;BME280_humidity;BME280_pressure;Samples;Min_cycle;Max_cycle;Signal;HPM_P1;HPM_P2
2023/08/10 00:16:28;;;;;;;0.95;0.52;;;18.50;99.90;;;;;;4955914;24;19950;-80
2023/08/10 00:18:56;;;;;;;1.30;0.73;;;18.40;99.90;;;;;;4822803;29;20145;-80
2023/08/10 00:21:24;;;;;;;1.58;0.80;;;18.50;99.90;;;;;;4819485;29;20142;-80
2023/08/10 00:23:57;;;;;;;1.35;0.70;;;18.40;99.90;;;;;;4819019;29;20084;-80
2023/08/10 00:26:25;;;;;;;2.28;0.70;;;18.40;99.90;;;;;;4816771;29;20067;-80
2023/08/10 00:28:57;;;;;;;0.95;0.73;;;18.40;99.90;;;;;;4817671;29;20054;-80
2023/08/10 00:31:24;;;;;;;1.00;0.60;;;18.40;99.90;;;;;;4817177;29;20051;-80
2023/08/10 00:33:53;;;;;;;1.40;0.60;;;18.30;99.90;;;;;;4805959;29;20058;-80
2023/08/10 00:36:30;;;;;;;0.93;0.70;;;18.30;99.90;;;;;;4821977;29;20121;-80
2023/08/10 00:48:06;;;;;;;1.33;0.60;;;18.40;99.90;;;;;;5350849;24;20012;-79
2023/08/10 00:51:25;;;;;;;2.90;0.60;;;18.30;99.90;;;;;;4846653;24;20062;-79
2023/08/10 00:54:00;;;;;;;2.00;0.73;;;18.30;99.90;;;;;;4848940;29;20057;-79
2023/08/10 00:56:31;;;;;;;2.28;0.65;;;18.30;99.90;;;;;;4832124;29;20050;-80
2023/08/10 01:06:00;;;;;;;2.17;0.80;;;18.20;99.90;;;;;;5869123;24;20134;31
2023/08/10 01:08:42;;;;;;;1.83;0.80;;;18.30;99.90;;;;;;4768076;30;20051;-79
2023/08/10 01:18:25;;;;;;;1.52;0.90;;;18.20;99.90;;;;;;5692401;24;20054;-78
2023/08/10 01:27:36;;;;;;;2.15;1.10;;;18.10;99.90;;;;;;5203308;24;20069;-79
2023/08/10 01:30:07;;;;;;;8.77;1.52;;;18.00;99.90;;;;;;5113471;24;20052;-79
2023/08/10 01:32:42;;;;;;;1.80;1.10;;;18.10;99.90;;;;;;5112853;24;20054;-79
2023/08/10 01:35:10;;;;;;;2.75;1.05;;;18.00;99.90;;;;;;4713884;30;20099;-79
2023/08/10 01:44:19;;;;;;;2.50;1.05;;;17.90;99.90;;;;;;5030571;24;20054;-79
2023/08/10 01:46:49;;;;;;;3.63;1.50;;;17.80;99.90;;;;;;4835642;29;20045;-79
2023/08/10 01:49:23;;;;;;;1.52;1.10;;;17.80;99.90;;;;;;4815534;29;20038;-79
2023/08/10 01:51:52;;;;;;;3.25;1.33;;;17.90;99.90;;;;;;4805018;29;20057;-79
2023/08/10 01:54:21;;;;;;;2.22;0.90;;;17.90;99.90;;;;;;4800153;29;20053;-79
2023/08/10 01:56:48;;;;;;;2.47;1.20;;;17.90;99.90;;;;;;4804685;29;20089;-79
2023/08/10 01:59:19;;;;;;;2.15;1.20;;;17.90;99.90;;;;;;4801860;29;20194;-79
2023/08/10 02:01:50;;;;;;;4.22;1.23;;;17.90;99.90;;;;;;4812306;29;20043;-79
2023/08/10 02:04:18;;;;;;;1.52;1.02;;;17.90;99.90;;;;;;4808661;29;20046;-79
2023/08/10 02:06:46;;;;;;;1.98;1.02;;;17.70;99.90;;;;;;4807937;29;20084;-79
2023/08/10 02:09:14;;;;;;;1.67;1.13;;;17.80;99.90;;;;;;4820561;29;20039;-79
2023/08/10 02:11:41;;;;;;;2.50;1.35;;;17.80;99.90;;;;;;4814477;29;20095;-78
2023/08/10 02:14:08;;;;;;;1.40;1.10;;;17.50;99.90;;;;;;4812668;29;20039;-78
2023/08/10 02:16:37;;;;;;;3.22;1.50;;;17.50;99.90;;;;;;5616443;24;20034;-79
2023/08/10 02:19:05;;;;;;;3.40;1.25;;;16.30;99.90;;;;;;4836296;29;20050;-79
2023/08/10 02:21:35;;;;;;;1.50;1.10;;;17.50;99.90;;;;;;4902653;24;20030;-79
2023/08/10 02:24:08;;;;;;;2.80;1.50;;;17.50;99.90;;;;;;4827830;29;20053;-79
2023/08/10 02:26:36;;;;;;;2.83;1.80;;;17.50;99.90;;;;;;4948726;24;20075;-78
2023/08/10 02:29:05;;;;;;;2.03;1.23;;;17.00;99.90;;;;;;4830875;29;20056;-78
2023/08/10 02:31:33;;;;;;;2.35;1.30;;;17.60;99.90;;;;;;4828856;29;20071;-78
2023/08/10 02:34:01;;;;;;;2.53;1.70;;;17.40;99.90;;;;;;4833192;29;20042;-78
2023/08/10 02:36:31;;;;;;;2.90;1.67;;;17.50;99.90;;;;;;4846182;29;20057;-78
2023/08/10 02:39:00;;;;;;;2.03;1.63;;;17.50;99.90;;;;;;4827677;29;20061;-78
2023/08/10 02:41:28;;;;;;;2.72;1.60;;;17.50;99.90;;;;;;4821276;29;20054;-78
2023/08/10 02:43:58;;;;;;;2.60;1.73;;;17.50;99.90;;;;;;4830489;29;20038;-78
2023/08/10 02:46:27;;;;;;;2.83;1.70;;;16.70;99.90;;;;;;4826855;29;20079;-78
2023/08/10 02:48:55;;;;;;;2.00;1.52;;;17.50;99.90;;;;;;4843337;29;20042;-78
2023/08/10 02:51:22;;;;;;;2.85;1.88;;;16.50;99.90;;;;;;4843934;29;20073;-78
2023/08/10 02:53:51;;;;;;;3.05;1.90;;;17.50;99.90;;;;;;4821741;29;20054;-78
2023/08/10 02:56:19;;;;;;;3.17;1.70;;;17.40;99.90;;;;;;4838614;29;20119;-78
2023/08/10 02:58:46;;;;;;;4.03;1.70;;;17.40;99.90;;;;;;4836510;29;20066;-78
2023/08/10 03:01:14;;;;;;;5.47;1.42;;;17.40;99.90;;;;;;4823625;29;20065;-78
2023/08/10 03:03:42;;;;;;;2.60;1.80;;;17.10;99.90;;;;;;4833025;29;20069;-78
2023/08/10 03:06:10;;;;;;;3.13;1.77;;;17.60;99.90;;;;;;4835002;29;20064;-80
2023/08/10 03:08:38;;;;;;;3.42;1.95;;;17.30;99.90;;;;;;4846498;29;20054;-80
2023/08/10 03:11:06;;;;;;;2.85;2.13;;;17.30;99.90;;;;;;4843818;29;20041;-79
2023/08/10 03:13:34;;;;;;;3.85;2.08;;;17.30;99.90;;;;;;4814775;29;20058;-79
2023/08/10 03:16:04;;;;;;;3.55;2.17;;;17.20;99.90;;;;;;4812082;29;20035;-79
2023/08/10 03:18:32;;;;;;;3.95;1.90;;;17.60;99.90;;;;;;4822900;29;20071;-79
2023/08/10 03:20:59;;;;;;;3.72;2.00;;;17.30;99.90;;;;;;4815405;29;20076;-79
2023/08/10 03:23:27;;;;;;;3.25;2.10;;;17.20;99.90;;;;;;4805252;29;20050;-79
2023/08/10 03:25:55;;;;;;;5.80;2.03;;;17.30;99.90;;;;;;4806558;29;20054;-79
2023/08/10 03:28:23;;;;;;;3.38;1.90;;;17.20;99.90;;;;;;4804087;29;20058;-79
2023/08/10 03:30:54;;;;;;;4.00;1.90;;;17.20;99.90;;;;;;4823017;29;20080;-79
2023/08/10 03:33:23;;;;;;;2.50;2.05;;;17.10;99.90;;;;;;4828155;29;20027;-79
2023/08/10 03:35:52;;;;;;;4.70;2.08;;;17.00;99.90;;;;;;4809927;29;20054;-79
2023/08/10 03:38:19;;;;;;;3.80;1.63;;;16.90;99.90;;;;;;4822920;29;20054;-79
2023/08/10 03:40:47;;;;;;;3.92;2.20;;;17.00;99.90;;;;;;4820261;29;20058;-79
2023/08/10 03:43:15;;;;;;;3.80;2.30;;;17.00;99.90;;;;;;4802862;29;20126;-79
2023/08/10 03:45:47;;;;;;;4.63;2.42;;;16.80;99.90;;;;;;4805442;29;20146;-79
2023/08/10 03:48:14;;;;;;;4.85;2.20;;;17.00;99.90;;;;;;4817267;29;20042;-79
2023/08/10 03:50:42;;;;;;;3.58;2.08;;;16.70;99.90;;;;;;4809589;29;20396;-79
2023/08/10 03:53:10;;;;;;;6.15;2.30;;;17.00;99.90;;;;;;4781676;29;20115;-79
2023/08/10 03:55:41;;;;;;;5.20;2.97;;;16.90;99.90;;;;;;4774795;30;20123;-79
2023/08/10 03:58:09;;;;;;;3.28;2.22;;;17.00;99.90;;;;;;4763699;29;20058;-79
2023/08/10 04:00:37;;;;;;;4.40;3.22;;;16.50;99.90;;;;;;4774123;29;20078;-79
2023/08/10 04:03:04;;;;;;;6.00;2.90;;;16.90;99.90;;;;;;4787132;29;20043;-78
2023/08/10 05:12:08;;;;;;;5.00;3.20;;;17.40;99.90;;;;;;5614900;24;20064;-78
2023/08/10 05:14:38;;;;;;;3.95;2.55;;;17.30;99.90;;;;;;4822726;29;20089;-78
2023/08/10 05:17:07;;;;;;;6.95;3.05;;;17.40;99.90;;;;;;5062594;24;20066;-78
2023/08/10 05:22:31;;;;;;;6.45;2.95;;;17.50;99.90;;;;;;5301633;24;20070;-79
2023/08/10 05:24:59;;;;;;;7.10;2.90;;;17.60;99.90;;;;;;4939621;24;20152;-79
2023/08/10 05:27:26;;;;;;;5.80;3.40;;;17.60;99.90;;;;;;4767802;30;20059;-79
2023/08/10 05:39:02;;;;;;;3.78;2.20;;;17.90;99.90;;;;;;4835526;29;20966;-79
2023/08/10 05:48:49;;;;;;;4.60;2.78;;;18.30;99.90;;;;;;5275075;24;20077;-79
2023/08/10 05:51:28;;;;;;;3.70;2.50;;;18.20;99.90;;;;;;4808962;29;20065;-78
2023/08/10 05:53:57;;;;;;;3.90;2.38;;;18.40;99.90;;;;;;4774039;29;20069;-78
2023/08/10 05:56:25;;;;;;;3.40;1.95;;;18.30;99.90;;;;;;4804990;29;22962;-79
2023/08/10 05:58:53;;;;;;;6.00;2.38;;;18.60;99.90;;;;;;4771632;29;20463;-79
2023/08/10 06:01:35;;;;;;;4.18;1.95;;;18.60;99.90;;;;;;4818209;29;20046;-80
2023/08/10 06:04:04;;;;;;;4.55;1.60;;;18.90;99.90;;;;;;4754246;29;20066;-78
2023/08/10 06:06:32;;;;;;;3.40;1.85;;;19.00;99.90;;;;;;4788245;29;20071;-80
2023/08/10 06:09:00;;;;;;;3.10;2.22;;;19.10;99.90;;;;;;4803293;29;20065;-79
2023/08/10 06:11:30;;;;;;;2.90;1.83;;;19.10;99.90;;;;;;4804096;29;20166;-79
2023/08/10 06:14:15;;;;;;;3.10;1.70;;;19.20;99.90;;;;;;4778126;29;20042;-79
2023/08/10 06:16:43;;;;;;;2.97;1.80;;;19.40;99.90;;;;;;4849263;24;20062;-79
2023/08/10 06:19:14;;;;;;;3.88;1.75;;;19.50;99.90;;;;;;5293552;24;20164;-80
2023/08/10 06:21:52;;;;;;;2.28;1.30;;;19.60;99.90;;;;;;4867881;24;20045;31
2023/08/10 06:24:22;;;;;;;3.28;1.40;;;19.20;99.90;;;;;;4721782;30;20057;-80
2023/08/10 06:26:49;;;;;;;3.35;1.70;;;19.70;99.90;;;;;;4727620;30;20047;-80
2023/08/10 06:29:32;;;;;;;3.70;1.77;;;19.80;99.90;;;;;;5377967;24;20045;31
2023/08/10 06:35:02;;;;;;;3.83;1.50;;;20.20;99.90;;;;;;5103875;24;20033;-79
2023/08/10 06:37:32;;;;;;;1.77;0.90;;;20.30;99.90;;;;;;4797328;29;20130;-79
2023/08/10 06:40:00;;;;;;;2.53;1.23;;;20.10;99.90;;;;;;4936149;24;20055;-79
2023/08/10 06:42:59;;;;;;;2.57;1.03;;;20.20;99.90;;;;;;5336321;24;20082;31
2023/08/10 06:45:39;;;;;;;2.97;1.83;;;20.40;99.90;;;;;;5121967;24;20330;-79
2023/08/10 06:54:06;;;;;;;2.92;1.63;;;20.80;99.90;;;;;;5045305;24;20125;-79
2023/08/10 06:56:36;;;;;;;2.10;1.02;;;20.80;99.70;;;;;;5227413;24;20032;-78
2023/08/10 06:59:04;;;;;;;1.88;0.90;;;20.80;99.60;;;;;;4790516;29;20062;-80
2023/08/10 07:01:36;;;;;;;3.22;1.13;;;20.90;99.30;;;;;;4775004;29;20062;-80
2023/08/10 07:04:08;;;;;;;2.38;1.27;;;21.10;98.10;;;;;;5409367;24;20065;-78
2023/08/10 07:06:35;;;;;;;1.00;0.70;;;21.10;97.70;;;;;;4792695;29;20047;-78
2023/08/10 07:09:08;;;;;;;2.25;0.98;;;20.90;97.20;;;;;;5017051;24;20104;-79
2023/08/10 07:12:04;;;;;;;1.42;1.05;;;20.90;97.00;;;;;;5471239;24;20037;-77
2023/08/10 07:14:32;;;;;;;2.35;0.90;;;20.90;96.80;;;;;;4768620;29;20070;-78
2023/08/10 07:23:17;;;;;;;1.80;0.77;;;21.60;96.90;;;;;;4980204;24;20065;-79
2023/08/10 07:42:45;;;;;;;1.40;0.60;;;21.60;93.30;;;;;;5370195;24;22626;-82
2023/08/10 07:45:21;;;;;;;1.40;0.60;;;21.70;93.10;;;;;;4767049;29;20034;-79
2023/08/10 08:04:44;;;;;;;0.93;0.50;;;22.30;90.30;;;;;;5261179;24;20042;-79
2023/08/10 08:07:14;;;;;;;1.75;0.45;;;22.60;90.10;;;;;;4820301;29;20075;-80
2023/08/10 08:09:53;;;;;;;1.67;0.30;;;22.50;84.60;;;;;;4851189;24;20118;-80
2023/08/10 08:12:26;;;;;;;0.73;0.40;;;22.50;85.60;;;;;;4779008;29;20290;-79
2023/08/10 08:14:54;;;;;;;0.70;0.30;;;22.40;83.60;;;;;;4767132;29;20058;-78
2023/08/10 08:17:22;;;;;;;1.33;0.40;;;22.30;82.80;;;;;;4942474;24;20062;-78
2023/08/10 08:19:55;;;;;;;1.02;0.57;;;22.30;81.80;;;;;;5026523;24;20041;-78
2023/08/10 08:22:24;;;;;;;0.65;0.25;;;22.40;81.90;;;;;;4823297;29;20153;-79
2023/08/10 08:24:52;;;;;;;1.20;0.30;;;22.30;80.80;;;;;;4795003;29;20042;-79
2023/08/10 08:27:21;;;;;;;0.82;0.47;;;22.20;80.50;;;;;;4935661;24;20026;-79
2023/08/10 08:30:14;;;;;;;0.88;0.40;;;22.00;81.70;;;;;;4823406;29;20068;-79
2023/08/10 08:32:44;;;;;;;0.70;0.10;;;21.90;81.10;;;;;;4770929;29;20039;-80
2023/08/10 08:38:40;;;;;;;0.88;0.17;;;21.80;76.60;;;;;;4772034;29;20051;-79
2023/08/10 08:41:21;;;;;;;0.40;0.10;;;22.10;76.60;;;;;;4820642;24;20066;-79
2023/08/10 08:43:52;;;;;;;0.40;0.20;;;21.40;73.80;;;;;;4903959;24;20071;-79
2023/08/10 08:46:25;;;;;;;1.17;0.20;;;22.40;72.60;;;;;;4798716;29;20045;-78
2023/08/10 08:48:58;;;;;;;1.67;0.20;;;22.20;70.90;;;;;;4863537;24;20110;-79
2023/08/10 08:51:30;;;;;;;1.15;0.30;;;22.50;74.10;;;;;;4785440;29;20051;-79
2023/08/10 08:54:20;;;;;;;0.93;0.30;;;22.60;73.70;;;;;;4810817;29;20043;-80
2023/08/10 08:57:11;;;;;;;0.93;0.20;;;22.50;73.20;;;;;;4764673;30;20036;-79
2023/08/10 09:00:04;;;;;;;0.52;0.20;;;22.60;74.50;;;;;;4752052;30;20056;-78
2023/08/10 09:03:18;;;;;;;0.93;0.30;;;22.60;73.80;;;;;;4722354;30;20056;-79
2023/08/10 09:05:51;;;;;;;1.45;0.20;;;22.80;72.70;;;;;;4691044;30;20037;-79
2023/08/10 09:08:22;;;;;;;1.10;0.20;;;22.80;71.80;;;;;;4696645;30;20089;-79
2023/08/10 09:10:49;;;;;;;1.70;0.20;;;22.70;69.40;;;;;;4690956;30;20065;-77
2023/08/10 09:13:23;;;;;;;0.82;0.10;;;22.60;68.70;;;;;;4691163;30;20421;-79
2023/08/10 09:16:09;;;;;;;1.45;0.20;;;22.60;69.90;;;;;;4682435;30;20054;-79
2023/08/10 09:18:45;;;;;;;0.73;0.20;;;22.50;69.30;;;;;;4670429;30;20069;-79
2023/08/10 09:21:19;;;;;;;0.82;0.20;;;22.90;69.30;;;;;;4660237;30;20061;-77
2023/08/10 09:23:48;;;;;;;0.75;0.10;;;22.60;69.30;;;;;;4693217;30;20061;-78
2023/08/10 09:26:18;;;;;;;0.57;0.10;;;22.50;67.90;;;;;;4711064;30;20052;-79
2023/08/10 09:32:09;;;;;;;0.82;0.25;;;22.50;67.60;;;;;;4888268;24;20062;-79
2023/08/10 09:34:46;;;;;;;4.05;0.30;;;22.60;69.30;;;;;;5276123;24;20029;-78
2023/08/10 09:47:48;;;;;;;1.50;0.30;;;22.80;67.10;;;;;;5365093;24;20054;-80
2023/08/10 09:57:04;;;;;;;0.43;0.10;;;22.60;61.30;;;;;;5086674;24;20385;-79
2023/08/10 09:59:32;;;;;;;1.35;0.20;;;22.50;61.90;;;;;;4776761;29;20073;-79
2023/08/10 10:02:11;;;;;;;2.10;0.20;;;22.60;63.30;;;;;;4866436;24;20084;-79
2023/08/10 10:05:06;;;;;;;0.70;0.10;;;22.60;63.10;;;;;;4824020;24;20109;-79
2023/08/10 10:07:34;;;;;;;;;;;22.60;62.80;;;;;;4760379;29;20603;-78
2023/08/10 10:10:12;;;;;;;1.92;0.20;;;22.60;60.70;;;;;;4829798;24;20067;-79
2023/08/10 10:12:40;;;;;;;0.55;0.20;;;22.80;62.50;;;;;;4810712;29;20067;-79
2023/08/10 10:15:10;;;;;;;0.65;0.20;;;22.60;63.20;;;;;;5105467;24;20029;-79
2023/08/10 10:17:52;;;;;;;0.47;0.10;;;22.60;64.40;;;;;;4905379;24;20734;-79
2023/08/10 10:20:22;;;;;;;0.45;0.15;;;22.50;63.60;;;;;;4798863;29;20520;-80
2023/08/10 10:22:49;;;;;;;0.47;0.15;;;22.70;63.60;;;;;;4886726;24;20085;-79
2023/08/10 10:25:31;;;;;;;0.50;0.20;;;22.70;63.50;;;;;;5360394;24;20058;-79
2023/08/10 10:28:21;;;;;;;1.38;0.20;;;22.60;64.50;;;;;;4909743;24;20070;-80
2023/08/10 10:31:14;;;;;;;0.63;0.20;;;22.60;64.00;;;;;;5285235;24;20038;-80
2023/08/10 10:33:55;;;;;;;0.40;0.10;;;22.70;64.40;;;;;;4793943;29;20093;-80
2023/08/10 10:36:23;;;;;;;1.10;0.10;;;22.70;63.60;;;;;;4802825;29;20060;-80
2023/08/10 10:39:11;;;;;;;0.73;0.10;;;22.80;62.40;;;;;;4848308;24;20072;-81
2023/08/10 10:42:10;;;;;;;0.93;0.20;;;22.80;64.20;;;;;;4766028;29;20312;-80
2023/08/10 10:44:59;;;;;;;0.80;0.10;;;22.70;63.50;;;;;;4718877;30;20063;-80
2023/08/10 10:47:41;;;;;;;1.17;0.20;;;22.10;63.40;;;;;;4733554;30;20080;-80
2023/08/10 10:50:20;;;;;;;0.60;0.20;;;22.60;64.10;;;;;;4720381;30;20060;-80
2023/08/10 10:52:58;;;;;;;0.85;0.20;;;22.60;63.10;;;;;;4730242;30;20473;-80
2023/08/10 10:55:53;;;;;;;0.98;0.20;;;22.50;62.80;;;;;;4691760;30;20062;-80
2023/08/10 10:58:42;;;;;;;1.02;0.20;;;22.50;62.50;;;;;;4669849;30;20061;-80
2023/08/10 11:01:09;;;;;;;0.82;0.20;;;22.60;63.50;;;;;;4678297;30;20061;-78
2023/08/10 11:03:42;;;;;;;0.70;0.30;;;22.60;64.10;;;;;;4676057;30;20153;-80
2023/08/10 11:06:12;;;;;;;0.43;0.20;;;22.60;62.80;;;;;;4662100;30;20095;-80
2023/08/10 11:08:40;;;;;;;0.95;0.20;;;22.60;63.40;;;;;;4665928;30;20679;-79
2023/08/10 11:11:08;;;;;;;0.50;0.20;;;22.60;61.10;;;;;;4680398;30;20061;-80
2023/08/10 11:13:35;;;;;;;0.70;0.10;;;22.60;63.70;;;;;;4676665;30;22761;-78
2023/08/10 11:16:05;;;;;;;1.58;0.35;;;22.80;64.10;;;;;;4725721;30;20047;-80
2023/08/10 11:18:33;;;;;;;0.90;0.35;;;23.00;66.00;;;;;;4687488;30;20060;-79
2023/08/10 11:21:01;;;;;;;0.82;0.30;;;22.90;64.10;;;;;;4714004;30;20764;-80
2023/08/10 11:23:28;;;;;;;0.85;0.43;;;22.90;66.80;;;;;;4721839;30;20389;-80
2023/08/10 11:25:57;;;;;;;0.65;0.30;;;22.90;65.80;;;;;;4721770;30;20082;-79
2023/08/10 11:28:26;;;;;;;1.17;0.20;;;22.90;65.90;;;;;;4717952;30;20520;-80
2023/08/10 11:30:53;;;;;;;0.60;0.20;;;23.00;67.10;;;;;;4746711;29;20513;-80
2023/08/10 11:33:23;;;;;;;1.50;0.20;;;23.00;63.60;;;;;;4739910;29;20135;-77
2023/08/10 11:35:51;;;;;;;0.93;0.20;;;23.10;65.90;;;;;;4746527;29;20055;-79
2023/08/10 11:38:19;;;;;;;1.40;0.17;;;23.10;65.10;;;;;;4719640;30;20051;-80
2023/08/10 11:40:47;;;;;;;0.70;0.22;;;23.10;64.60;;;;;;4731830;30;20063;-79
2023/08/10 11:43:15;;;;;;;1.20;0.20;;;23.00;64.70;;;;;;4746989;29;20287;-81
2023/08/10 11:45:45;;;;;;;0.77;0.30;;;23.00;64.60;;;;;;4756022;29;20812;-81
2023/08/10 11:48:16;;;;;;;;;;;23.00;63.00;;;;;;4746210;30;20331;-80
2023/08/10 11:50:43;;;;;;;0.60;0.20;;;23.00;63.00;;;;;;4757645;29;19926;-80
2023/08/10 11:53:16;;;;;;;0.70;0.22;;;23.10;64.80;;;;;;4751950;30;20657;-80
2023/08/10 11:55:49;;;;;;;1.40;0.40;;;23.10;64.20;;;;;;4749794;29;20516;-80
2023/08/10 11:58:17;;;;;;;1.05;0.30;;;23.20;63.80;;;;;;4762527;29;20088;-77
2023/08/10 12:00:49;;;;;;;0.57;0.20;;;23.00;61.40;;;;;;4754235;29;20221;-80
2023/08/10 12:03:27;;;;;;;0.50;0.30;;;23.00;61.40;;;;;;4751482;29;20067;-79
2023/08/10 12:06:04;;;;;;;0.73;0.20;;;23.00;62.50;;;;;;4755298;29;20070;-79
2023/08/10 12:08:36;;;;;;;0.57;0.28;;;23.10;62.70;;;;;;4762972;29;20508;-78
2023/08/10 12:11:08;;;;;;;0.98;0.20;;;23.20;61.20;;;;;;4762022;29;20081;-79
2023/08/10 12:13:47;;;;;;;0.60;0.20;;;23.10;61.00;;;;;;4748880;29;20837;-80
2023/08/10 12:16:18;;;;;;;0.70;0.28;;;23.10;61.20;;;;;;4750769;29;20060;-79
2023/08/10 12:18:47;;;;;;;0.80;0.28;;;23.00;59.80;;;;;;4754275;29;20347;-80
2023/08/10 12:21:15;;;;;;;1.50;0.20;;;23.00;60.10;;;;;;4760166;29;20516;-81
2023/08/10 12:24:39;;;;;;;0.50;0.20;;;23.00;60.40;;;;;;4699659;30;20068;-82
2023/08/10 12:27:26;;;;;;;0.50;0.25;;;23.20;62.20;;;;;;4644143;30;20045;-81
2023/08/10 12:29:53;;;;;;;0.70;0.20;;;23.20;61.30;;;;;;4687723;30;20093;-82
2023/08/10 12:32:21;;;;;;;1.75;0.30;;;23.20;63.20;;;;;;4647469;30;20373;-81
2023/08/10 12:34:49;;;;;;;1.10;0.20;;;23.20;62.10;;;;;;4660283;30;20519;-79
2023/08/10 12:37:24;;;;;;;1.10;0.22;;;23.30;62.60;;;;;;4660814;30;20418;-83
2023/08/10 12:40:37;;;;;;;1.63;0.20;;;23.30;61.60;;;;;;4658552;30;20088;-82
2023/08/10 12:43:27;;;;;;;0.95;0.20;;;23.20;64.60;;;;;;4666729;30;20203;-81
2023/08/10 12:45:55;;;;;;;0.50;0.20;;;23.20;64.20;;;;;;4673269;30;20053;-80
2023/08/10 12:48:22;;;;;;;1.40;0.47;;;23.30;64.60;;;;;;4682844;30;20692;-79
2023/08/10 12:50:50;;;;;;;0.77;0.25;;;23.40;65.00;;;;;;4673393;30;20062;-80
2023/08/10 12:53:30;;;;;;;0.90;0.25;;;23.40;65.10;;;;;;4650155;30;20065;-81
2023/08/10 12:56:09;;;;;;;3.28;0.40;;;23.40;65.40;;;;;;4683976;30;20872;-83
2023/08/10 12:58:37;;;;;;;1.17;0.30;;;23.30;64.40;;;;;;4658377;30;20085;-81
2023/08/10 13:01:04;;;;;;;0.57;0.20;;;23.40;64.10;;;;;;4675879;30;20062;-77
2023/08/10 13:03:39;;;;;;;1.50;0.20;;;23.30;64.90;;;;;;4684954;30;20053;-82
2023/08/10 13:06:07;;;;;;;0.80;0.30;;;23.40;66.00;;;;;;4696997;30;20122;-81
2023/08/10 13:08:38;;;;;;;0.90;0.30;;;23.40;66.20;;;;;;4697932;30;20099;-82
2023/08/10 13:11:05;;;;;;;0.55;0.20;;;23.40;64.80;;;;;;4689364;30;20064;-80
2023/08/10 13:13:32;;;;;;;0.68;0.20;;;23.40;66.00;;;;;;4696333;30;20061;-82
2023/08/10 13:16:08;;;;;;;3.90;0.15;;;23.40;66.00;;;;;;4692224;30;20508;-82
2023/08/10 13:18:38;;;;;;;1.10;0.20;;;23.40;63.60;;;;;;4668095;30;20064;-82
2023/08/10 13:21:08;;;;;;;0.80;0.38;;;23.30;64.20;;;;;;4684984;30;20132;-80
2023/08/10 13:24:05;;;;;;;0.80;0.30;;;23.50;62.20;;;;;;4685041;30;20663;-82
2023/08/10 13:26:53;;;;;;;1.48;0.30;;;23.50;63.30;;;;;;4667286;30;20089;-82
2023/08/10 13:29:23;;;;;;;0.80;0.20;;;23.50;62.90;;;;;;4663229;30;20049;-80
2023/08/10 13:31:51;;;;;;;0.88;0.20;;;23.50;60.30;;;;;;4709432;30;20069;-81
2023/08/10 13:34:18;;;;;;;1.65;0.52;;;23.40;60.60;;;;;;4697504;30;20849;-78
2023/08/10 13:36:55;;;;;;;0.55;0.20;;;23.40;61.60;;;;;;4696442;30;20063;-82
2023/08/10 13:39:25;;;;;;;0.40;0.20;;;23.40;58.50;;;;;;4734448;29;20138;-81
2023/08/10 13:41:52;;;;;;;0.80;0.17;;;23.50;58.30;;;;;;4734863;29;20058;-81
2023/08/10 13:44:19;;;;;;;7.22;0.40;;;23.50;59.00;;;;;;4735314;30;20063;-79
2023/08/10 13:46:47;;;;;;;0.50;0.20;;;23.50;57.70;;;;;;4732500;29;20435;-80
2023/08/10 13:49:15;;;;;;;1.20;0.10;;;23.40;56.40;;;;;;4745736;29;20059;-81
2023/08/10 13:51:44;;;;;;;0.60;0.20;;;23.50;57.90;;;;;;4749406;29;20480;-81
2023/08/10 13:54:11;;;;;;;0.40;0.20;;;23.50;58.00;;;;;;4774815;29;20059;-79
2023/08/10 13:57:03;;;;;;;0.88;0.20;;;23.50;59.30;;;;;;4755283;29;20043;-81
2023/08/10 13:59:33;;;;;;;1.05;0.20;;;23.50;59.60;;;;;;4728623;30;20057;-82
2023/08/10 14:02:01;;;;;;;0.70;0.22;;;23.50;58.90;;;;;;4735881;30;20056;-82
2023/08/10 14:04:28;;;;;;;1.25;0.20;;;23.50;57.50;;;;;;4742387;29;20179;-83
2023/08/10 14:07:07;;;;;;;0.70;0.40;;;23.50;58.00;;;;;;4714247;30;20682;-82
2023/08/10 14:09:37;;;;;;;1.60;0.20;;;23.50;57.80;;;;;;4711252;30;20048;-82
2023/08/10 14:12:49;;;;;;;0.30;0.10;;;23.50;59.40;;;;;;4650851;30;20871;-84
2023/08/10 14:15:17;;;;;;;1.90;0.20;;;23.60;59.10;;;;;;4637937;30;20553;-80
2023/08/10 14:17:45;;;;;;;0.50;0.43;;;23.60;58.60;;;;;;4651155;30;20112;-81
2023/08/10 14:20:34;;;;;;;0.82;0.20;;;23.60;58.00;;;;;;4664597;30;20176;-82
2023/08/10 14:23:08;;;;;;;1.23;0.20;;;23.50;59.20;;;;;;4646008;30;20069;-82
2023/08/10 14:25:36;;;;;;;1.13;0.28;;;23.50;60.40;;;;;;4660947;30;20704;-82
2023/08/10 14:28:30;;;;;;;0.40;0.10;;;23.50;60.00;;;;;;4663037;30;20064;-84
2023/08/10 14:30:59;;;;;;;0.60;0.20;;;23.50;59.80;;;;;;4678180;30;20053;-81
2023/08/10 14:33:52;;;;;;;0.77;0.20;;;23.50;62.80;;;;;;4671347;30;20065;-83
2023/08/10 14:37:01;;;;;;;0.60;0.20;;;23.50;61.60;;;;;;4678817;30;20069;-83
2023/08/10 14:39:36;;;;;;;0.57;0.20;;;23.50;62.00;;;;;;4677842;30;20100;-82
2023/08/10 14:42:44;;;;;;;1.50;0.52;;;23.50;60.90;;;;;;4663552;30;20094;-81
2023/08/10 14:45:30;;;;;;;1.48;0.20;;;23.50;59.70;;;;;;4729457;30;20450;-81
2023/08/10 14:48:37;;;;;;;2.05;0.30;;;23.50;61.40;;;;;;4662857;30;20056;-81
2023/08/10 14:51:20;;;;;;;0.38;0.10;;;23.50;60.40;;;;;;4712961;30;20056;-81
2023/08/10 14:53:49;;;;;;;0.80;0.20;;;23.40;60.20;;;;;;4711925;30;20120;-79
2023/08/10 14:56:26;;;;;;;0.55;0.10;;;23.40;59.00;;;;;;4729582;30;20048;-81
2023/08/10 15:02:11;;;;;;;0.73;0.20;;;23.40;60.10;;;;;;4726540;30;20060;-81
2023/08/10 15:04:50;;;;;;;0.80;0.20;;;23.30;59.30;;;;;;4695529;30;20218;-80
2023/08/10 15:07:23;;;;;;;0.85;0.22;;;23.30;59.00;;;;;;4693343;30;20546;-81
2023/08/10 15:09:52;;;;;;;1.00;0.20;;;23.20;60.30;;;;;;4679612;30;20053;-78
2023/08/10 15:12:22;;;;;;;1.25;0.20;;;23.20;59.90;;;;;;4708390;30;20053;-81
2023/08/10 15:14:49;;;;;;;0.50;0.20;;;23.20;59.20;;;;;;4699197;30;20871;-78
2023/08/10 15:17:16;;;;;;;1.38;0.20;;;23.20;59.90;;;;;;4699352;30;20060;-83
2023/08/10 15:19:43;;;;;;;0.60;0.20;;;23.10;59.10;;;;;;4710993;30;20958;-81
2023/08/10 15:22:10;;;;;;;1.58;0.25;;;23.20;60.70;;;;;;4695276;30;20686;-79
2023/08/10 15:24:59;;;;;;;0.60;0.38;;;23.20;58.40;;;;;;4729179;30;20067;-80
2023/08/10 15:27:29;;;;;;;0.88;0.30;;;23.10;58.80;;;;;;4690193;30;20143;-81
2023/08/10 15:29:56;;;;;;;0.82;0.40;;;23.10;58.70;;;;;;4696109;30;20045;-80
2023/08/10 15:32:24;;;;;;;1.85;0.20;;;23.10;57.80;;;;;;4716011;30;20055;-80
2023/08/10 15:38:50;;;;;;;0.93;0.15;;;23.00;57.70;;;;;;4906124;24;20132;-82
2023/08/10 15:41:26;;;;;;;2.03;0.57;;;23.00;57.90;;;;;;4750116;29;20138;-79
2023/08/10 15:48:16;;;;;;;0.85;0.20;;;23.00;56.50;;;;;;4940128;24;20192;-82
2023/08/10 15:51:18;;;;;;;1.98;0.13;;;23.00;57.80;;;;;;4754860;29;20834;-82
2023/08/10 15:53:47;;;;;;;1.15;0.20;;;23.00;58.20;;;;;;4723857;29;20054;-82
2023/08/10 15:56:14;;;;;;;0.70;0.20;;;22.90;60.00;;;;;;4736510;30;20083;-81
2023/08/10 16:02:13;;;;;;;0.43;0.20;;;22.90;58.90;;;;;;4795120;24;20054;-81
2023/08/10 16:04:49;;;;;;;0.50;0.20;;;22.90;57.60;;;;;;4723233;30;20182;-82
2023/08/10 16:11:20;;;;;;;0.73;0.20;;;22.80;58.00;;;;;;5030419;24;20426;-82
2023/08/10 16:14:08;;;;;;;;;;;22.80;57.50;;;;;;4807317;29;20055;-81
2023/08/10 16:17:10;;;;;;;0.73;0.20;;;22.70;57.50;;;;;;4774122;29;20033;-83
2023/08/10 16:22:38;;;;;;;0.75;0.17;;;22.60;56.10;;;;;;4966544;24;20126;-80
2023/08/10 16:25:10;;;;;;;1.05;0.20;;;22.70;57.50;;;;;;4828436;29;20066;-81
2023/08/10 16:28:02;;;;;;;2.05;0.20;;;22.60;56.80;;;;;;4827601;29;20057;-81
2023/08/10 16:34:53;;;;;;;1.50;0.10;;;22.50;58.40;;;;;;4812867;29;20150;-82
2023/08/10 16:37:20;;;;;;;0.55;0.20;;;22.50;57.00;;;;;;4755278;30;20462;-81
2023/08/10 16:39:48;;;;;;;3.22;0.20;;;22.50;57.40;;;;;;4763017;30;20101;-80
2023/08/10 16:42:15;;;;;;;1.00;0.20;;;22.50;57.60;;;;;;4737200;30;20071;-80
2023/08/10 16:44:43;;;;;;;0.88;0.20;;;22.40;57.50;;;;;;4771226;30;20048;-82
2023/08/10 16:47:48;;;;;;;0.70;0.20;;;22.40;58.50;;;;;;4735769;30;20056;-81
2023/08/10 16:50:16;;;;;;;0.60;0.20;;;22.30;59.40;;;;;;4756001;30;20405;-81
2023/08/10 16:53:15;;;;;;;0.60;0.20;;;22.30;59.70;;;;;;4715394;30;20422;-79
2023/08/10 16:55:43;;;;;;;0.90;0.20;;;22.20;60.20;;;;;;4715768;30;20065;-79
2023/08/10 16:58:10;;;;;;;0.80;0.20;;;22.20;59.30;;;;;;4721442;30;20061;-78
2023/08/10 17:01:28;;;;;;;1.00;0.30;;;22.20;59.60;;;;;;4717796;30;20037;-81
2023/08/10 17:05:07;;;;;;;0.88;0.28;;;22.20;60.40;;;;;;4674580;30;20072;-81
2023/08/10 17:08:05;;;;;;;1.48;0.20;;;22.10;61.80;;;;;;4656831;30;20057;-81
2023/08/10 17:11:01;;;;;;;0.85;0.20;;;22.00;61.80;;;;;;4616591;30;20051;-81
2023/08/10 17:14:13;;;;;;;0.52;0.30;;;21.90;62.10;;;;;;4579162;31;20087;-81
2023/08/10 17:16:42;;;;;;;2.10;0.35;;;21.90;61.60;;;;;;4601133;30;21048;-80
2023/08/10 17:19:12;;;;;;;3.70;0.30;;;21.80;61.80;;;;;;4601938;31;20068;-79
2023/08/10 17:24:44;;;;;;;0.98;0.20;;;21.70;62.10;;;;;;4811394;29;20039;-81